createdAt,value
2023-04-27T00:00:51.760Z,4.17
2023-04-27T00:03:18.061Z,4.63
2023-04-27T00:05:44.452Z,4.70
2023-04-27T00:08:11.390Z,4.80
2023-04-27T00:10:37.521Z,4.63
2023-04-27T00:13:03.783Z,4.77
2023-04-27T00:15:30.056Z,4.70
2023-04-27T00:17:56.967Z,5.40
2023-04-27T00:20:23.259Z,5.47
2023-04-27T00:22:49.414Z,5.67
2023-04-27T00:25:16.180Z,5.07
2023-04-27T00:27:42.336Z,4.50
2023-04-27T00:30:09.863Z,4.80
2023-04-27T00:32:36.012Z,5.53
2023-04-27T00:35:02.247Z,6.10
2023-04-27T00:37:28.361Z,5.17
2023-04-27T00:39:54.610Z,5.57
2023-04-27T00:42:22.243Z,5.40
2023-04-27T00:44:48.363Z,5.17
2023-04-27T00:47:15.737Z,5.80
2023-04-27T00:49:41.884Z,5.60
2023-04-27T00:52:08.148Z,5.93
2023-04-27T00:54:35.094Z,6.00
2023-04-27T00:57:03.224Z,5.80
2023-04-27T00:59:30.030Z,6.27
2023-04-27T01:01:56.195Z,6.50
2023-04-27T01:04:22.621Z,6.70
2023-04-27T01:06:48.856Z,7.87
2023-04-27T01:09:15.765Z,7.47
2023-04-27T01:11:41.929Z,7.50
2023-04-27T01:14:08.075Z,7.70
2023-04-27T01:16:35.117Z,7.03
2023-04-27T01:19:01.258Z,6.70
2023-04-27T01:21:27.417Z,6.70
2023-04-27T01:23:54.691Z,5.37
2023-04-27T01:26:21.692Z,5.90
2023-04-27T01:28:47.972Z,6.27
2023-04-27T01:31:14.437Z,5.83
2023-04-27T01:33:40.990Z,5.87
2023-04-27T01:36:08.344Z,5.47
2023-04-27T01:38:34.711Z,5.43
2023-04-27T01:41:03.883Z,6.07
2023-04-27T01:43:30.536Z,6.00
2023-04-27T01:45:56.900Z,5.43
2023-04-27T01:48:23.276Z,6.60
2023-04-27T01:50:49.451Z,6.40
2023-04-27T01:53:15.547Z,7.20
2023-04-27T01:55:41.744Z,6.50
2023-04-27T01:58:08.491Z,6.27
2023-04-27T02:00:34.821Z,5.83
2023-04-27T02:03:01.088Z,6.53
2023-04-27T02:05:27.450Z,7.37
2023-04-27T02:07:53.644Z,6.23
2023-04-27T02:10:21.399Z,6.10
2023-04-27T02:12:47.517Z,6.27
2023-04-27T02:15:14.363Z,6.33
2023-04-27T02:17:40.674Z,5.60
2023-04-27T02:20:09.188Z,6.60
2023-04-27T02:22:35.319Z,6.13
2023-04-27T02:25:01.518Z,6.17
2023-04-27T02:27:27.640Z,5.77
2023-04-27T02:29:54.254Z,6.10
2023-04-27T02:32:22.093Z,6.03
2023-04-27T02:34:48.221Z,6.50
2023-04-27T02:37:14.340Z,6.57
2023-04-27T02:39:40.448Z,5.60
2023-04-27T02:42:06.575Z,6.47
2023-04-27T02:44:32.698Z,5.80
2023-04-27T02:46:58.896Z,6.23
2023-04-27T02:49:25.746Z,6.13
2023-04-27T02:51:51.835Z,6.10
2023-04-27T02:54:17.925Z,5.57
2023-04-27T02:56:44.010Z,5.90
2023-04-27T02:59:10.160Z,5.63
2023-04-27T03:01:36.407Z,6.67
2023-04-27T03:04:03.259Z,6.07
2023-04-27T03:06:30.165Z,5.93
2023-04-27T03:08:56.354Z,6.10
2023-04-27T03:11:22.466Z,6.30
2023-04-27T03:13:48.922Z,6.20
2023-04-27T03:16:15.245Z,6.33
2023-04-27T03:18:41.637Z,6.73
2023-04-27T03:21:08.297Z,6.80
2023-04-27T03:23:35.126Z,6.30
2023-04-27T03:26:04.907Z,7.00
2023-04-27T03:28:31.370Z,6.60
2023-04-27T03:30:57.507Z,6.60
2023-04-27T03:33:23.669Z,7.20
2023-04-27T03:35:55.027Z,6.50
2023-04-27T03:38:21.131Z,6.10
2023-04-27T03:40:47.900Z,6.67
2023-04-27T03:43:14.103Z,6.67
2023-04-27T03:45:40.245Z,7.10
2023-04-27T03:48:06.448Z,7.20
2023-04-27T03:50:32.613Z,7.27
2023-04-27T03:52:58.724Z,7.07
2023-04-27T03:55:25.331Z,8.83
2023-04-27T03:57:52.083Z,8.20
2023-04-27T04:00:18.402Z,7.50
2023-04-27T04:02:44.744Z,7.60
2023-04-27T04:05:11.465Z,7.87
2023-04-27T04:07:37.836Z,8.17
2023-04-27T04:10:04.586Z,7.40
2023-04-27T04:12:30.863Z,8.13
2023-04-27T04:14:57.593Z,7.73
2023-04-27T04:17:24.104Z,8.00
2023-04-27T04:19:50.266Z,8.40
2023-04-27T04:22:16.583Z,9.10
2023-04-27T04:24:42.853Z,8.27
2023-04-27T04:27:09.011Z,8.17
2023-04-27T04:29:35.176Z,8.67
2023-04-27T04:32:01.949Z,7.83
2023-04-27T04:34:28.443Z,8.90
2023-04-27T04:36:56.556Z,7.50
2023-04-27T04:39:22.720Z,7.63
2023-04-27T04:41:49.147Z,8.50
2023-04-27T04:44:15.501Z,7.80
2023-04-27T04:46:42.103Z,7.50
2023-04-27T04:49:09.051Z,8.37
2023-04-27T04:51:35.450Z,7.60
2023-04-27T04:54:02.162Z,7.93
2023-04-27T04:56:28.407Z,7.47
2023-04-27T04:58:54.549Z,7.63
2023-04-27T05:01:21.056Z,7.93
2023-04-27T05:03:47.321Z,8.13
2023-04-27T05:06:14.118Z,7.93
2023-04-27T05:08:40.280Z,7.23
2023-04-27T05:11:06.497Z,7.73
2023-04-27T05:13:32.650Z,8.20
2023-04-27T05:15:58.877Z,8.40
2023-04-27T05:18:25.379Z,7.70
2023-04-27T05:20:51.520Z,7.50
2023-04-27T05:23:18.398Z,8.57
2023-04-27T05:25:44.620Z,7.77
2023-04-27T05:28:10.714Z,7.90
2023-04-27T05:30:37.383Z,7.63
2023-04-27T05:33:04.037Z,7.70
2023-04-27T05:35:30.425Z,7.77
2023-04-27T05:37:56.547Z,7.60
2023-04-27T05:40:23.420Z,7.10
2023-04-27T05:42:49.715Z,7.70
2023-04-27T05:45:15.939Z,7.80
2023-04-27T05:47:42.210Z,7.73
2023-04-27T05:50:09.183Z,7.70
2023-04-27T05:52:37.594Z,7.53
2023-04-27T05:55:05.550Z,7.90
2023-04-27T05:57:32.305Z,7.10
2023-04-27T05:59:59.513Z,7.90
2023-04-27T06:02:25.976Z,6.87
2023-04-27T06:04:52.346Z,7.13
2023-04-27T06:07:18.547Z,6.43
2023-04-27T06:09:44.691Z,7.23
2023-04-27T06:12:10.975Z,6.87
2023-04-27T06:14:38.409Z,6.70
2023-04-27T06:17:05.096Z,6.97
2023-04-27T06:19:31.261Z,6.97
2023-04-27T06:21:57.420Z,7.00
2023-04-27T06:24:23.560Z,7.77
2023-04-27T06:26:49.854Z,6.80
2023-04-27T06:29:16.073Z,7.60
2023-04-27T06:31:42.930Z,7.57
2023-04-27T06:34:09.430Z,6.93
2023-04-27T06:36:35.562Z,6.77
2023-04-27T06:39:01.715Z,7.13
2023-04-27T06:41:27.915Z,6.63
2023-04-27T06:43:54.254Z,7.17
2023-04-27T06:46:20.512Z,6.53
2023-04-27T06:48:47.377Z,6.63
2023-04-27T06:51:14.042Z,6.37
2023-04-27T06:53:40.387Z,7.30
2023-04-27T06:56:09.212Z,5.90
2023-04-27T06:58:35.430Z,7.10
2023-04-27T07:01:01.900Z,6.57
2023-04-27T07:03:28.292Z,6.60
2023-04-27T07:05:56.451Z,6.87
2023-04-27T07:08:22.812Z,6.60
2023-04-27T07:10:49.311Z,6.33
2023-04-27T07:13:15.817Z,6.67
2023-04-27T07:15:42.005Z,6.20
2023-04-27T07:18:08.263Z,6.10
2023-04-27T07:20:34.589Z,6.53
2023-04-27T07:23:01.760Z,6.33
2023-04-27T07:25:27.961Z,6.33
2023-04-27T07:27:54.279Z,6.50
2023-04-27T07:30:20.797Z,6.47
2023-04-27T07:32:53.539Z,6.33
2023-04-27T07:35:19.960Z,6.17
2023-04-27T07:37:46.066Z,6.17
2023-04-27T07:40:15.597Z,6.60
2023-04-27T07:42:41.984Z,5.80
2023-04-27T07:45:09.025Z,6.43
2023-04-27T07:47:35.381Z,6.57
2023-04-27T07:50:01.778Z,6.03
2023-04-27T07:52:27.900Z,6.40
2023-04-27T07:54:54.024Z,5.40
2023-04-27T07:57:21.007Z,5.93
2023-04-27T07:59:47.141Z,5.93
2023-04-27T08:02:19.682Z,5.37
2023-04-27T08:04:46.969Z,6.13
2023-04-27T08:07:14.416Z,5.30
2023-04-27T08:09:40.958Z,6.00
2023-04-27T08:12:07.482Z,6.07
2023-04-27T08:14:34.630Z,5.60
2023-04-27T08:17:00.801Z,5.73
2023-04-27T08:19:27.012Z,6.23
2023-04-27T08:21:53.331Z,5.50
2023-04-27T08:24:20.326Z,5.20
2023-04-27T08:26:46.610Z,5.97
2023-04-27T08:29:26.281Z,5.50
2023-04-27T08:31:56.675Z,5.73
2023-04-27T08:34:23.308Z,5.07
2023-04-27T08:36:49.654Z,4.97
2023-04-27T08:39:17.314Z,4.97
2023-04-27T08:41:43.804Z,5.60
2023-04-27T08:44:10.215Z,5.30
2023-04-27T08:46:37.534Z,5.00
2023-04-27T08:49:04.729Z,5.33
2023-04-27T08:51:32.202Z,3.90
2023-04-27T08:53:58.391Z,4.70
2023-04-27T08:56:26.811Z,4.53
2023-04-27T08:58:53.739Z,4.67
2023-04-27T09:01:20.274Z,5.17
2023-04-27T09:03:46.859Z,6.30
2023-04-27T09:06:14.515Z,5.80
2023-04-27T09:08:41.718Z,5.37
2023-04-27T09:11:07.938Z,5.80
2023-04-27T09:13:38.344Z,5.73
2023-04-27T09:16:05.824Z,5.23
2023-04-27T09:18:36.133Z,5.23
2023-04-27T09:21:03.536Z,5.03
2023-04-27T09:23:31.517Z,5.77
2023-04-27T09:25:58.718Z,6.27
2023-04-27T09:28:26.756Z,5.50
2023-04-27T09:30:54.161Z,6.17
2023-04-27T09:33:24.067Z,5.77
2023-04-27T09:35:50.498Z,5.83
2023-04-27T09:38:17.130Z,6.30
2023-04-27T09:40:43.936Z,6.10
2023-04-27T09:43:11.014Z,5.70
2023-04-27T09:45:37.721Z,5.90
2023-04-27T09:48:05.148Z,5.67
2023-04-27T09:50:35.639Z,5.90
2023-04-27T09:53:05.706Z,5.87
2023-04-27T09:55:35.340Z,6.03
2023-04-27T09:58:14.997Z,5.73
2023-04-27T10:00:52.712Z,5.87
2023-04-27T10:03:23.838Z,5.47
2023-04-27T10:06:26.802Z,6.00
2023-04-27T10:08:52.953Z,6.00
2023-04-27T10:11:19.148Z,5.73
2023-04-27T10:13:54.262Z,5.23
2023-04-27T10:16:21.312Z,6.27
2023-04-27T10:18:51.797Z,5.70
2023-04-27T10:21:17.924Z,5.97
2023-04-27T10:23:48.918Z,5.90
2023-04-27T10:26:22.026Z,5.80
2023-04-27T10:28:57.202Z,5.33
2023-04-27T10:31:27.145Z,5.30
2023-04-27T10:33:53.392Z,5.77
2023-04-27T10:36:19.663Z,5.43
2023-04-27T10:38:45.864Z,5.33
2023-04-27T10:41:14.011Z,5.20
2023-04-27T10:43:40.289Z,4.57
2023-04-27T10:46:11.523Z,5.47
2023-04-27T10:48:38.384Z,5.10
2023-04-27T10:51:04.568Z,4.70
2023-04-27T10:53:34.095Z,4.97
2023-04-27T10:56:00.307Z,4.70
2023-04-27T10:58:34.647Z,5.23
2023-04-27T11:01:12.135Z,5.13
2023-04-27T11:03:38.537Z,5.60
2023-04-27T11:06:05.922Z,5.03
2023-04-27T11:08:33.249Z,5.40
2023-04-27T11:10:59.410Z,5.70
2023-04-27T11:13:27.446Z,5.37
2023-04-27T11:15:55.127Z,5.33
2023-04-27T11:18:23.965Z,4.63
2023-04-27T11:20:51.575Z,4.93
2023-04-27T11:23:25.042Z,4.90
2023-04-27T11:25:51.940Z,5.10
2023-04-27T11:28:18.260Z,5.27
2023-04-27T11:30:44.493Z,4.90
2023-04-27T11:33:10.803Z,5.27
2023-04-27T11:35:38.660Z,6.20
2023-04-27T11:38:04.846Z,5.57
2023-04-27T11:40:31.526Z,5.87
2023-04-27T11:42:58.216Z,5.37
2023-04-27T11:45:25.626Z,6.07
2023-04-27T11:47:51.805Z,5.27
2023-04-27T11:50:18.338Z,5.60
2023-04-27T11:52:48.462Z,4.90
2023-04-27T11:55:15.353Z,4.97
2023-04-27T11:57:41.919Z,5.43
2023-04-27T12:00:10.118Z,5.27
2023-04-27T12:02:37.138Z,5.90
2023-04-27T12:05:04.160Z,6.23
2023-04-27T12:07:30.714Z,5.07
2023-04-27T12:09:58.949Z,5.53
2023-04-27T12:12:26.907Z,5.47
2023-04-27T12:14:53.107Z,5.87
2023-04-27T12:17:19.304Z,5.87
2023-04-27T12:19:45.478Z,5.50
2023-04-27T12:22:11.633Z,5.10
2023-04-27T12:24:37.766Z,5.47
2023-04-27T12:27:04.655Z,5.40
2023-04-27T12:29:31.266Z,5.33
2023-04-27T12:31:58.202Z,5.10
2023-04-27T12:34:24.422Z,5.10
2023-04-27T12:36:50.593Z,5.53
2023-04-27T12:39:18.935Z,5.47
2023-04-27T12:41:46.305Z,5.70
2023-04-27T12:44:13.972Z,5.70
2023-04-27T12:46:41.424Z,5.40
2023-04-27T12:49:07.727Z,6.00
2023-04-27T12:51:34.245Z,5.27
2023-04-27T12:54:01.022Z,5.13
2023-04-27T12:56:27.374Z,5.20
2023-04-27T12:58:54.331Z,5.00
2023-04-27T13:01:24.069Z,5.63
2023-04-27T13:03:51.772Z,5.40
2023-04-27T13:06:18.141Z,5.67
2023-04-27T13:08:44.754Z,5.63
2023-04-27T13:11:10.968Z,5.73
2023-04-27T13:13:37.118Z,5.50
2023-04-27T13:16:03.757Z,5.03
2023-04-27T13:18:32.914Z,5.33
2023-04-27T13:21:01.958Z,5.67
2023-04-27T13:23:29.168Z,5.50
2023-04-27T13:25:55.293Z,5.07
2023-04-27T13:28:21.438Z,5.67
2023-04-27T13:30:48.168Z,4.87
2023-04-27T13:33:22.470Z,5.13
2023-04-27T13:35:50.758Z,5.40
2023-04-27T13:38:16.910Z,5.20
2023-04-27T13:40:43.233Z,5.20
2023-04-27T13:43:09.397Z,5.93
2023-04-27T13:45:35.571Z,5.80
2023-04-27T13:48:01.801Z,5.60
2023-04-27T13:50:27.981Z,4.93
2023-04-27T13:52:54.953Z,5.67
2023-04-27T13:55:21.078Z,5.77
2023-04-27T13:57:47.293Z,5.87
2023-04-27T14:00:14.468Z,4.63
2023-04-27T14:02:41.040Z,5.37
2023-04-27T14:05:07.754Z,5.60
2023-04-27T14:07:35.112Z,5.77
2023-04-27T14:10:01.968Z,5.83
2023-04-27T14:12:28.109Z,5.30
2023-04-27T14:14:54.225Z,5.37
2023-04-27T14:17:20.618Z,5.57
2023-04-27T14:19:46.872Z,5.33
2023-04-27T14:22:13.152Z,5.63
2023-04-27T14:24:39.366Z,5.70
2023-04-27T14:27:06.127Z,5.83
2023-04-27T14:29:32.255Z,6.07
2023-04-27T14:31:58.595Z,5.20
2023-04-27T14:34:24.735Z,5.10
2023-04-27T14:36:50.902Z,4.93
2023-04-27T14:39:17.215Z,5.30
2023-04-27T14:41:43.341Z,5.87
2023-04-27T14:44:10.452Z,5.93
2023-04-27T14:46:36.826Z,4.93
2023-04-27T14:49:02.966Z,5.63
2023-04-27T14:51:29.114Z,5.60
2023-04-27T14:53:55.472Z,5.17
2023-04-27T14:56:22.542Z,5.37
2023-04-27T14:58:48.673Z,5.50
2023-04-27T15:01:15.513Z,5.30
2023-04-27T15:03:42.035Z,5.63
2023-04-27T15:06:08.288Z,5.57
2023-04-27T15:08:34.611Z,5.30
2023-04-27T15:11:02.934Z,5.43
2023-04-27T15:13:29.035Z,5.20
2023-04-27T15:15:55.715Z,5.90
2023-04-27T15:18:22.867Z,5.73
2023-04-27T15:20:52.626Z,5.40
2023-04-27T15:23:18.754Z,5.53
2023-04-27T15:25:46.006Z,5.23
2023-04-27T15:28:12.252Z,5.60
2023-04-27T15:30:38.630Z,5.63
2023-04-27T15:33:04.896Z,5.50
2023-04-27T15:35:31.803Z,5.10
2023-04-27T15:37:57.929Z,4.50
2023-04-27T15:40:24.025Z,5.00
2023-04-27T15:42:50.199Z,5.83
2023-04-27T15:45:16.419Z,4.90
2023-04-27T15:47:42.573Z,4.67
2023-04-27T15:50:09.172Z,5.23
2023-04-27T15:52:35.906Z,5.33
2023-04-27T15:55:03.622Z,4.67
2023-04-27T15:57:29.904Z,4.50
2023-04-27T15:59:56.009Z,4.97
2023-04-27T16:02:22.196Z,4.60
2023-04-27T16:04:48.562Z,5.40
2023-04-27T16:07:14.717Z,4.93
2023-04-27T16:09:41.554Z,5.00
2023-04-27T16:12:07.706Z,5.20
2023-04-27T16:14:33.820Z,4.40
2023-04-27T16:17:03.153Z,4.33
2023-04-27T16:19:29.844Z,4.77
2023-04-27T16:21:55.937Z,5.23
2023-04-27T16:24:22.089Z,4.77
2023-04-27T16:26:48.866Z,5.00
2023-04-27T16:29:15.218Z,4.53
2023-04-27T16:31:41.945Z,4.67
2023-04-27T16:34:08.231Z,4.67
2023-04-27T16:36:34.523Z,4.60
2023-04-27T16:39:01.547Z,5.20
2023-04-27T16:41:27.845Z,5.40
2023-04-27T16:43:54.631Z,5.13
2023-04-27T16:46:21.396Z,5.30
2023-04-27T16:48:47.623Z,4.83
2023-04-27T16:51:13.770Z,4.17
2023-04-27T16:53:40.558Z,5.10
2023-04-27T16:56:07.307Z,5.20
2023-04-27T16:58:35.336Z,5.87
2023-04-27T17:01:02.136Z,5.27
2023-04-27T17:03:29.138Z,4.83
2023-04-27T17:05:55.586Z,5.00
2023-04-27T17:08:21.727Z,5.30
2023-04-27T17:10:47.871Z,5.27
2023-04-27T17:13:15.647Z,5.70
2023-04-27T17:15:41.776Z,4.60
2023-04-27T17:18:08.908Z,4.90
2023-04-27T17:20:35.062Z,5.00
2023-04-27T17:23:01.171Z,4.73
2023-04-27T17:25:27.274Z,5.73
2023-04-27T17:27:53.394Z,5.10
2023-04-27T17:30:19.539Z,5.10
2023-04-27T17:32:45.710Z,4.33
2023-04-27T17:35:12.481Z,5.07
2023-04-27T17:37:38.634Z,5.20
2023-04-27T17:40:07.073Z,4.53
2023-04-27T17:42:33.285Z,5.20
2023-04-27T17:44:59.405Z,5.00
2023-04-27T17:47:27.142Z,5.40
2023-04-27T17:49:53.435Z,5.17
2023-04-27T17:52:20.202Z,5.50
2023-04-27T17:54:46.344Z,4.83
2023-04-27T17:57:12.545Z,4.80
2023-04-27T17:59:38.716Z,5.00
2023-04-27T18:02:04.927Z,5.60
2023-04-27T18:04:31.185Z,4.83
2023-04-27T18:06:57.590Z,4.60
2023-04-27T18:09:25.519Z,4.57
2023-04-27T18:11:51.632Z,5.23
2023-04-27T18:14:17.747Z,4.87
2023-04-27T18:16:44.136Z,4.73
2023-04-27T18:19:10.459Z,5.37
2023-04-27T18:21:37.059Z,5.00
2023-04-27T18:24:03.613Z,5.40
2023-04-27T18:26:30.675Z,5.87
2023-04-27T18:28:58.417Z,5.13
2023-04-27T18:31:24.728Z,4.70
2023-04-27T18:33:50.951Z,4.50
2023-04-27T18:36:18.870Z,5.03
2023-04-27T18:38:44.991Z,5.13
2023-04-27T18:41:11.239Z,4.83
2023-04-27T18:43:38.227Z,4.03
2023-04-27T18:46:04.607Z,4.60
2023-04-27T18:48:31.465Z,4.83
2023-04-27T18:50:57.636Z,4.60
2023-04-27T18:53:23.864Z,4.20
2023-04-27T18:55:50.203Z,4.20
2023-04-27T18:58:16.482Z,4.77
2023-04-27T19:00:43.637Z,4.67
2023-04-27T19:03:10.092Z,4.90
2023-04-27T19:05:39.104Z,4.40
2023-04-27T19:08:05.503Z,4.70
2023-04-27T19:10:31.919Z,4.70
2023-04-27T19:12:58.108Z,4.97
2023-04-27T19:15:24.481Z,4.77
2023-04-27T19:18:02.139Z,5.07
2023-04-27T19:20:35.909Z,4.90
2023-04-27T19:23:02.094Z,5.33
2023-04-27T19:25:28.262Z,4.70
2023-04-27T19:27:54.491Z,4.90
2023-04-27T19:30:21.166Z,4.80
2023-04-27T19:32:47.575Z,4.63
2023-04-27T19:35:14.331Z,4.90
2023-04-27T19:37:40.645Z,4.80
2023-04-27T19:40:08.091Z,5.30
2023-04-27T19:42:34.254Z,4.87
2023-04-27T19:45:00.959Z,5.10
2023-04-27T19:47:27.204Z,4.77
2023-04-27T19:49:53.790Z,4.70
2023-04-27T19:52:20.593Z,5.33
2023-04-27T19:54:50.678Z,5.00
2023-04-27T19:57:16.984Z,5.70
2023-04-27T19:59:43.212Z,4.87
2023-04-27T20:02:09.409Z,5.43
2023-04-27T20:04:35.842Z,5.47
2023-04-27T20:07:03.764Z,5.00
2023-04-27T20:09:31.897Z,5.33
2023-04-27T20:11:58.069Z,4.73
2023-04-27T20:14:24.428Z,4.90
2023-04-27T20:16:50.645Z,5.30
2023-04-27T20:19:18.323Z,5.13
2023-04-27T20:21:44.715Z,5.07
2023-04-27T20:24:11.075Z,5.07
2023-04-27T20:26:37.895Z,5.00
2023-04-27T20:29:04.033Z,4.87
2023-04-27T20:31:30.594Z,5.23
2023-04-27T20:33:56.812Z,5.10
2023-04-27T20:36:22.984Z,4.60
2023-04-27T20:38:49.125Z,5.00
2023-04-27T20:41:15.237Z,5.10
2023-04-27T20:43:44.575Z,5.40
2023-04-27T20:46:11.244Z,5.00
2023-04-27T20:48:37.557Z,5.13
2023-04-27T20:51:03.878Z,4.70
2023-04-27T20:53:30.368Z,5.33
2023-04-27T20:55:56.544Z,5.00
2023-04-27T20:58:22.705Z,5.10
2023-04-27T21:00:49.666Z,5.73
2023-04-27T21:03:15.879Z,4.57
2023-04-27T21:05:42.154Z,5.53
2023-04-27T21:08:08.711Z,4.67
2023-04-27T21:10:34.944Z,5.13
2023-04-27T21:13:02.555Z,4.93
2023-04-27T21:15:28.672Z,4.63
2023-04-27T21:17:55.474Z,5.57
2023-04-27T21:20:21.602Z,5.00
2023-04-27T21:22:47.852Z,4.87
2023-04-27T21:25:14.419Z,4.43
2023-04-27T21:27:40.727Z,5.07
2023-04-27T21:30:08.214Z,5.37
2023-04-27T21:32:34.396Z,5.20
2023-04-27T21:35:01.183Z,4.73
2023-04-27T21:37:27.337Z,4.93
2023-04-27T21:39:53.529Z,5.70
2023-04-27T21:42:19.780Z,5.40
2023-04-27T21:44:46.370Z,5.23
2023-04-27T21:47:12.504Z,5.00
2023-04-27T21:49:38.629Z,5.33
2023-04-27T21:52:05.497Z,5.23
2023-04-27T21:54:31.685Z,5.30
2023-04-27T21:56:57.868Z,5.43
2023-04-27T21:59:24.004Z,6.07
2023-04-27T22:01:50.181Z,5.93
2023-04-27T22:04:16.657Z,6.33
2023-04-27T22:06:43.878Z,5.60
2023-04-27T22:09:11.421Z,6.00
2023-04-27T22:11:37.670Z,5.87
2023-04-27T22:14:03.814Z,5.60
2023-04-27T22:16:30.086Z,5.47
2023-04-27T22:18:56.853Z,5.40
2023-04-27T22:21:23.047Z,5.10
2023-04-27T22:23:49.222Z,5.67
2023-04-27T22:26:18.553Z,5.27
2023-04-27T22:28:44.659Z,4.73
2023-04-27T22:31:10.881Z,5.23
2023-04-27T22:33:37.167Z,4.73
2023-04-27T22:36:03.670Z,4.57
2023-04-27T22:38:29.945Z,4.90
2023-04-27T22:40:56.217Z,4.70
2023-04-27T22:43:22.980Z,4.43
2023-04-27T22:45:49.176Z,4.90
2023-04-27T22:48:15.590Z,4.40
2023-04-27T22:50:41.809Z,4.40
2023-04-27T22:53:08.036Z,4.57
2023-04-27T22:55:34.265Z,4.57
2023-04-27T22:58:00.443Z,4.40
2023-04-27T23:00:27.225Z,4.90
2023-04-27T23:02:53.566Z,4.30
2023-04-27T23:05:19.715Z,5.23
2023-04-27T23:07:45.879Z,4.70
2023-04-27T23:10:12.180Z,4.87
2023-04-27T23:12:38.334Z,5.10
2023-04-27T23:15:05.124Z,4.50
2023-04-27T23:17:32.124Z,4.37
2023-04-27T23:19:59.018Z,4.97
2023-04-27T23:22:25.519Z,5.10
2023-04-27T23:24:51.783Z,4.53
2023-04-27T23:27:18.008Z,4.87
2023-04-27T23:29:44.219Z,4.50
2023-04-27T23:32:10.875Z,4.60
2023-04-27T23:34:37.775Z,5.20
2023-04-27T23:37:03.909Z,4.60
2023-04-27T23:39:30.227Z,4.97
2023-04-27T23:41:57.311Z,5.17
2023-04-27T23:44:23.520Z,5.10
2023-04-27T23:46:49.656Z,5.00
2023-04-27T23:49:15.769Z,5.30
2023-04-27T23:51:42.514Z,4.97
2023-04-27T23:54:08.633Z,5.40
2023-04-27T23:56:34.769Z,5.20
2023-04-27T23:59:00.904Z,5.17
